sensor_id;sensor_type;location;lat;lon;timestamp;P1;durP1;ratioP1;P2;durP2;ratioP2
64653;SDS011;51065;48.884;12.598;2024-02-15T00:00:27;8.38;;;3.67;;
64653;SDS011;51065;48.884;12.598;2024-02-15T00:02:53;11.90;;;4.50;;
64653;SDS011;51065;48.884;12.598;2024-02-15T00:05:19;10.98;;;4.50;;
64653;SDS011;51065;48.884;12.598;2024-02-15T00:07:44;9.10;;;4.00;;
64653;SDS011;51065;48.884;12.598;2024-02-15T00:10:13;11.85;;;4.85;;
64653;SDS011;51065;48.884;12.598;2024-02-15T00:12:39;11.95;;;4.30;;
64653;SDS011;51065;48.884;12.598;2024-02-15T00:15:05;10.30;;;4.53;;
64653;SDS011;51065;48.884;12.598;2024-02-15T00:17:31;10.93;;;5.07;;
64653;SDS011;51065;48.884;12.598;2024-02-15T00:20:00;10.32;;;4.60;;
64653;SDS011;51065;48.884;12.598;2024-02-15T00:22:29;9.10;;;4.70;;
64653;SDS011;51065;48.884;12.598;2024-02-15T00:24:55;12.43;;;4.85;;
64653;SDS011;51065;48.884;12.598;2024-02-15T00:27:20;9.00;;;4.07;;
64653;SDS011;51065;48.884;12.598;2024-02-15T00:29:46;10.60;;;4.55;;
64653;SDS011;51065;48.884;12.598;2024-02-15T00:32:12;11.27;;;4.35;;
64653;SDS011;51065;48.884;12.598;2024-02-15T00:34:37;9.50;;;4.25;;
64653;SDS011;51065;48.884;12.598;2024-02-15T00:37:06;8.68;;;4.35;;
64653;SDS011;51065;48.884;12.598;2024-02-15T00:39:32;8.52;;;4.25;;
64653;SDS011;51065;48.884;12.598;2024-02-15T00:41:58;7.05;;;3.78;;
64653;SDS011;51065;48.884;12.598;2024-02-15T00:44:27;10.93;;;4.40;;
64653;SDS011;51065;48.884;12.598;2024-02-15T00:46:52;12.75;;;4.68;;
64653;SDS011;51065;48.884;12.598;2024-02-15T00:49:18;12.57;;;4.72;;
64653;SDS011;51065;48.884;12.598;2024-02-15T00:51:50;13.27;;;4.97;;
64653;SDS011;51065;48.884;12.598;2024-02-15T00:54:16;10.02;;;4.07;;
64653;SDS011;51065;48.884;12.598;2024-02-15T00:56:42;14.20;;;4.63;;
64653;SDS011;51065;48.884;12.598;2024-02-15T00:59:07;14.45;;;5.10;;
64653;SDS011;51065;48.884;12.598;2024-02-15T01:01:33;11.80;;;4.65;;
64653;SDS011;51065;48.884;12.598;2024-02-15T01:04:02;9.73;;;4.18;;
64653;SDS011;51065;48.884;12.598;2024-02-15T01:06:27;10.27;;;4.45;;
64653;SDS011;51065;48.884;12.598;2024-02-15T01:08:53;11.30;;;4.50;;
64653;SDS011;51065;48.884;12.598;2024-02-15T01:11:18;10.13;;;4.05;;
64653;SDS011;51065;48.884;12.598;2024-02-15T01:13:44;8.60;;;4.10;;
64653;SDS011;51065;48.884;12.598;2024-02-15T01:16:12;7.47;;;3.78;;
64653;SDS011;51065;48.884;12.598;2024-02-15T01:18:38;9.82;;;4.28;;
64653;SDS011;51065;48.884;12.598;2024-02-15T01:21:04;9.35;;;4.30;;
64653;SDS011;51065;48.884;12.598;2024-02-15T01:23:29;9.13;;;3.78;;
64653;SDS011;51065;48.884;12.598;2024-02-15T01:25:55;9.88;;;4.05;;
64653;SDS011;51065;48.884;12.598;2024-02-15T01:28:21;9.95;;;4.18;;
64653;SDS011;51065;48.884;12.598;2024-02-15T01:30:47;15.38;;;5.97;;
64653;SDS011;51065;48.884;12.598;2024-02-15T01:33:12;10.43;;;4.03;;
64653;SDS011;51065;48.884;12.598;2024-02-15T01:35:38;11.00;;;5.03;;
64653;SDS011;51065;48.884;12.598;2024-02-15T01:38:04;12.73;;;5.03;;
64653;SDS011;51065;48.884;12.598;2024-02-15T01:40:30;8.63;;;4.07;;
64653;SDS011;51065;48.884;12.598;2024-02-15T01:42:57;8.57;;;4.28;;
64653;SDS011;51065;48.884;12.598;2024-02-15T01:45:27;12.98;;;5.10;;
64653;SDS011;51065;48.884;12.598;2024-02-15T01:47:53;15.73;;;7.18;;
64653;SDS011;51065;48.884;12.598;2024-02-15T01:50:19;15.63;;;6.18;;
64653;SDS011;51065;48.884;12.598;2024-02-15T01:52:46;13.13;;;5.38;;
64653;SDS011;51065;48.884;12.598;2024-02-15T01:55:13;19.98;;;7.30;;
64653;SDS011;51065;48.884;12.598;2024-02-15T01:57:40;15.88;;;5.90;;
64653;SDS011;51065;48.884;12.598;2024-02-15T02:00:12;19.65;;;7.93;;
64653;SDS011;51065;48.884;12.598;2024-02-15T02:02:39;21.65;;;7.70;;
64653;SDS011;51065;48.884;12.598;2024-02-15T02:05:07;15.80;;;7.57;;
64653;SDS011;51065;48.884;12.598;2024-02-15T02:07:33;9.60;;;4.38;;
64653;SDS011;51065;48.884;12.598;2024-02-15T02:09:59;8.77;;;3.90;;
64653;SDS011;51065;48.884;12.598;2024-02-15T02:12:26;9.40;;;4.28;;
64653;SDS011;51065;48.884;12.598;2024-02-15T02:14:55;9.27;;;4.10;;
64653;SDS011;51065;48.884;12.598;2024-02-15T02:17:24;9.90;;;4.10;;
64653;SDS011;51065;48.884;12.598;2024-02-15T02:19:49;11.10;;;4.20;;
64653;SDS011;51065;48.884;12.598;2024-02-15T02:22:16;10.23;;;4.32;;
64653;SDS011;51065;48.884;12.598;2024-02-15T02:27:34;9.65;;;3.85;;
64653;SDS011;51065;48.884;12.598;2024-02-15T02:30:02;11.93;;;3.53;;
64653;SDS011;51065;48.884;12.598;2024-02-15T02:32:32;9.35;;;3.90;;
64653;SDS011;51065;48.884;12.598;2024-02-15T02:34:59;5.45;;;3.25;;
64653;SDS011;51065;48.884;12.598;2024-02-15T02:37:25;6.93;;;3.47;;
64653;SDS011;51065;48.884;12.598;2024-02-15T02:39:51;8.20;;;3.65;;
64653;SDS011;51065;48.884;12.598;2024-02-15T02:42:17;9.52;;;4.00;;
64653;SDS011;51065;48.884;12.598;2024-02-15T02:44:43;9.32;;;3.85;;
64653;SDS011;51065;48.884;12.598;2024-02-15T02:47:09;6.45;;;3.78;;
64653;SDS011;51065;48.884;12.598;2024-02-15T02:49:35;7.18;;;3.80;;
64653;SDS011;51065;48.884;12.598;2024-02-15T02:52:01;7.18;;;3.55;;
64653;SDS011;51065;48.884;12.598;2024-02-15T02:54:28;8.75;;;3.92;;
64653;SDS011;51065;48.884;12.598;2024-02-15T02:56:54;8.70;;;4.10;;
64653;SDS011;51065;48.884;12.598;2024-02-15T02:59:19;6.20;;;3.40;;
64653;SDS011;51065;48.884;12.598;2024-02-15T03:01:45;9.00;;;4.10;;
64653;SDS011;51065;48.884;12.598;2024-02-15T03:04:11;9.77;;;3.63;;
64653;SDS011;51065;48.884;12.598;2024-02-15T03:06:37;8.40;;;3.90;;
64653;SDS011;51065;48.884;12.598;2024-02-15T03:09:03;9.35;;;3.60;;
64653;SDS011;51065;48.884;12.598;2024-02-15T03:11:32;7.05;;;3.72;;
64653;SDS011;51065;48.884;12.598;2024-02-15T03:13:58;7.18;;;3.88;;
64653;SDS011;51065;48.884;12.598;2024-02-15T03:16:24;7.05;;;3.55;;
64653;SDS011;51065;48.884;12.598;2024-02-15T03:18:51;8.05;;;3.70;;
64653;SDS011;51065;48.884;12.598;2024-02-15T03:21:17;8.52;;;3.90;;
64653;SDS011;51065;48.884;12.598;2024-02-15T03:23:43;9.57;;;3.88;;
64653;SDS011;51065;48.884;12.598;2024-02-15T03:26:09;6.72;;;3.60;;
64653;SDS011;51065;48.884;12.598;2024-02-15T03:28:36;5.85;;;3.42;;
64653;SDS011;51065;48.884;12.598;2024-02-15T03:31:02;9.75;;;4.28;;
64653;SDS011;51065;48.884;12.598;2024-02-15T03:33:28;9.20;;;4.30;;
64653;SDS011;51065;48.884;12.598;2024-02-15T03:35:58;9.07;;;4.10;;
64653;SDS011;51065;48.884;12.598;2024-02-15T03:38:27;7.72;;;3.42;;
64653;SDS011;51065;48.884;12.598;2024-02-15T03:40:54;9.93;;;4.13;;
64653;SDS011;51065;48.884;12.598;2024-02-15T03:43:21;10.25;;;4.55;;
64653;SDS011;51065;48.884;12.598;2024-02-15T03:45:48;7.00;;;3.80;;
64653;SDS011;51065;48.884;12.598;2024-02-15T03:48:14;10.00;;;4.53;;
64653;SDS011;51065;48.884;12.598;2024-02-15T03:50:40;8.95;;;4.32;;
64653;SDS011;51065;48.884;12.598;2024-02-15T03:53:06;10.30;;;4.30;;
64653;SDS011;51065;48.884;12.598;2024-02-15T03:55:32;11.43;;;4.32;;
64653;SDS011;51065;48.884;12.598;2024-02-15T03:57:58;10.90;;;4.40;;
64653;SDS011;51065;48.884;12.598;2024-02-15T04:00:24;10.43;;;4.15;;
64653;SDS011;51065;48.884;12.598;2024-02-15T04:02:50;7.53;;;4.20;;
64653;SDS011;51065;48.884;12.598;2024-02-15T04:05:15;8.48;;;4.22;;
64653;SDS011;51065;48.884;12.598;2024-02-15T04:07:48;9.60;;;4.65;;
64653;SDS011;51065;48.884;12.598;2024-02-15T04:10:14;9.23;;;4.13;;
64653;SDS011;51065;48.884;12.598;2024-02-15T04:12:39;10.68;;;4.65;;
64653;SDS011;51065;48.884;12.598;2024-02-15T04:15:08;13.88;;;4.65;;
64653;SDS011;51065;48.884;12.598;2024-02-15T04:17:37;9.82;;;5.07;;
64653;SDS011;51065;48.884;12.598;2024-02-15T04:20:03;13.48;;;5.25;;
64653;SDS011;51065;48.884;12.598;2024-02-15T04:22:31;12.10;;;5.18;;
64653;SDS011;51065;48.884;12.598;2024-02-15T04:25:02;9.75;;;4.53;;
64653;SDS011;51065;48.884;12.598;2024-02-15T04:27:31;15.48;;;5.82;;
64653;SDS011;51065;48.884;12.598;2024-02-15T04:29:57;12.43;;;4.65;;
64653;SDS011;51065;48.884;12.598;2024-02-15T04:32:23;14.98;;;5.70;;
64653;SDS011;51065;48.884;12.598;2024-02-15T04:34:48;9.20;;;4.70;;
64653;SDS011;51065;48.884;12.598;2024-02-15T04:37:14;10.05;;;4.88;;
64653;SDS011;51065;48.884;12.598;2024-02-15T04:39:41;9.88;;;4.95;;
64653;SDS011;51065;48.884;12.598;2024-02-15T04:42:07;10.25;;;4.60;;
64653;SDS011;51065;48.884;12.598;2024-02-15T04:44:37;9.27;;;4.68;;
64653;SDS011;51065;48.884;12.598;2024-02-15T04:47:04;8.20;;;4.28;;
64653;SDS011;51065;48.884;12.598;2024-02-15T04:49:30;8.43;;;4.43;;
64653;SDS011;51065;48.884;12.598;2024-02-15T04:51:56;9.02;;;4.47;;
64653;SDS011;51065;48.884;12.598;2024-02-15T04:54:28;11.25;;;5.15;;
64653;SDS011;51065;48.884;12.598;2024-02-15T04:56:54;9.73;;;4.22;;
64653;SDS011;51065;48.884;12.598;2024-02-15T04:59:21;9.95;;;5.00;;
64653;SDS011;51065;48.884;12.598;2024-02-15T05:01:50;10.13;;;4.50;;
64653;SDS011;51065;48.884;12.598;2024-02-15T05:04:17;9.98;;;3.78;;
64653;SDS011;51065;48.884;12.598;2024-02-15T05:06:43;7.97;;;3.92;;
64653;SDS011;51065;48.884;12.598;2024-02-15T05:09:10;6.80;;;3.78;;
64653;SDS011;51065;48.884;12.598;2024-02-15T05:11:36;7.72;;;3.72;;
64653;SDS011;51065;48.884;12.598;2024-02-15T05:14:03;7.13;;;3.72;;
64653;SDS011;51065;48.884;12.598;2024-02-15T05:16:34;7.25;;;3.78;;
64653;SDS011;51065;48.884;12.598;2024-02-15T05:19:00;9.93;;;4.40;;
64653;SDS011;51065;48.884;12.598;2024-02-15T05:21:25;9.57;;;4.38;;
64653;SDS011;51065;48.884;12.598;2024-02-15T05:23:51;7.57;;;3.72;;
64653;SDS011;51065;48.884;12.598;2024-02-15T05:26:18;7.78;;;3.90;;
64653;SDS011;51065;48.884;12.598;2024-02-15T05:28:48;9.43;;;4.22;;
64653;SDS011;51065;48.884;12.598;2024-02-15T05:31:15;8.00;;;3.75;;
64653;SDS011;51065;48.884;12.598;2024-02-15T05:33:42;8.45;;;3.88;;
64653;SDS011;51065;48.884;12.598;2024-02-15T05:36:12;9.05;;;4.70;;
64653;SDS011;51065;48.884;12.598;2024-02-15T05:38:38;8.10;;;3.67;;
64653;SDS011;51065;48.884;12.598;2024-02-15T05:41:05;8.10;;;4.13;;
64653;SDS011;51065;48.884;12.598;2024-02-15T05:43:32;8.07;;;3.97;;
64653;SDS011;51065;48.884;12.598;2024-02-15T05:45:58;9.52;;;4.00;;
64653;SDS011;51065;48.884;12.598;2024-02-15T05:48:26;10.43;;;4.43;;
64653;SDS011;51065;48.884;12.598;2024-02-15T05:50:52;8.43;;;4.30;;
64653;SDS011;51065;48.884;12.598;2024-02-15T05:53:19;9.75;;;4.05;;
64653;SDS011;51065;48.884;12.598;2024-02-15T05:55:45;6.82;;;3.88;;
64653;SDS011;51065;48.884;12.598;2024-02-15T05:58:11;10.23;;;3.85;;
64653;SDS011;51065;48.884;12.598;2024-02-15T06:00:38;10.60;;;4.30;;
64653;SDS011;51065;48.884;12.598;2024-02-15T06:03:05;8.80;;;4.25;;
64653;SDS011;51065;48.884;12.598;2024-02-15T06:05:31;9.70;;;4.20;;
64653;SDS011;51065;48.884;12.598;2024-02-15T06:07:57;9.02;;;3.85;;
64653;SDS011;51065;48.884;12.598;2024-02-15T06:10:24;9.30;;;3.80;;
64653;SDS011;51065;48.884;12.598;2024-02-15T06:12:50;8.48;;;4.22;;
64653;SDS011;51065;48.884;12.598;2024-02-15T06:15:16;9.45;;;4.15;;
64653;SDS011;51065;48.884;12.598;2024-02-15T06:17:42;11.82;;;4.53;;
64653;SDS011;51065;48.884;12.598;2024-02-15T06:20:10;11.23;;;5.40;;
64653;SDS011;51065;48.884;12.598;2024-02-15T06:22:39;5.57;;;3.83;;
64653;SDS011;51065;48.884;12.598;2024-02-15T06:25:05;8.02;;;4.28;;
64653;SDS011;51065;48.884;12.598;2024-02-15T06:27:34;8.68;;;3.90;;
64653;SDS011;51065;48.884;12.598;2024-02-15T06:30:02;9.25;;;3.85;;
64653;SDS011;51065;48.884;12.598;2024-02-15T06:32:46;6.82;;;3.70;;
64653;SDS011;51065;48.884;12.598;2024-02-15T06:35:31;9.60;;;3.63;;
64653;SDS011;51065;48.884;12.598;2024-02-15T06:38:15;7.85;;;3.60;;
64653;SDS011;51065;48.884;12.598;2024-02-15T06:40:59;9.52;;;4.30;;
64653;SDS011;51065;48.884;12.598;2024-02-15T06:43:24;8.65;;;4.18;;
64653;SDS011;51065;48.884;12.598;2024-02-15T06:45:50;8.52;;;4.18;;
64653;SDS011;51065;48.884;12.598;2024-02-15T06:48:16;12.48;;;4.03;;
64653;SDS011;51065;48.884;12.598;2024-02-15T06:50:47;11.45;;;4.18;;
64653;SDS011;51065;48.884;12.598;2024-02-15T06:53:13;10.52;;;4.18;;
64653;SDS011;51065;48.884;12.598;2024-02-15T06:55:42;7.45;;;4.13;;
64653;SDS011;51065;48.884;12.598;2024-02-15T06:58:09;8.98;;;3.97;;
64653;SDS011;51065;48.884;12.598;2024-02-15T07:00:37;8.98;;;4.13;;
64653;SDS011;51065;48.884;12.598;2024-02-15T07:03:05;8.60;;;4.05;;
64653;SDS011;51065;48.884;12.598;2024-02-15T07:05:32;8.23;;;4.10;;
64653;SDS011;51065;48.884;12.598;2024-02-15T07:07:58;8.93;;;4.07;;
64653;SDS011;51065;48.884;12.598;2024-02-15T07:10:24;8.77;;;4.38;;
64653;SDS011;51065;48.884;12.598;2024-02-15T07:12:49;8.13;;;4.13;;
64653;SDS011;51065;48.884;12.598;2024-02-15T07:15:18;10.00;;;4.47;;
64653;SDS011;51065;48.884;12.598;2024-02-15T07:17:45;9.05;;;4.68;;
64653;SDS011;51065;48.884;12.598;2024-02-15T07:20:11;10.38;;;5.15;;
64653;SDS011;51065;48.884;12.598;2024-02-15T07:22:39;12.90;;;4.65;;
64653;SDS011;51065;48.884;12.598;2024-02-15T07:25:04;8.68;;;4.60;;
64653;SDS011;51065;48.884;12.598;2024-02-15T07:27:30;11.45;;;5.07;;
64653;SDS011;51065;48.884;12.598;2024-02-15T07:30:00;8.32;;;4.47;;
64653;SDS011;51065;48.884;12.598;2024-02-15T07:32:25;9.80;;;4.30;;
64653;SDS011;51065;48.884;12.598;2024-02-15T07:34:52;10.38;;;4.28;;
64653;SDS011;51065;48.884;12.598;2024-02-15T07:37:17;9.38;;;4.50;;
64653;SDS011;51065;48.884;12.598;2024-02-15T07:39:43;11.48;;;4.70;;
64653;SDS011;51065;48.884;12.598;2024-02-15T07:42:08;9.00;;;4.22;;
64653;SDS011;51065;48.884;12.598;2024-02-15T07:44:34;8.63;;;4.25;;
64653;SDS011;51065;48.884;12.598;2024-02-15T07:47:02;9.73;;;4.53;;
64653;SDS011;51065;48.884;12.598;2024-02-15T07:49:29;8.77;;;4.00;;
64653;SDS011;51065;48.884;12.598;2024-02-15T07:51:55;9.73;;;4.53;;
64653;SDS011;51065;48.884;12.598;2024-02-15T07:54:20;11.32;;;4.78;;
64653;SDS011;51065;48.884;12.598;2024-02-15T07:56:46;12.90;;;5.25;;
64653;SDS011;51065;48.884;12.598;2024-02-15T07:59:15;12.18;;;5.22;;
64653;SDS011;51065;48.884;12.598;2024-02-15T08:01:44;9.85;;;4.40;;
64653;SDS011;51065;48.884;12.598;2024-02-15T08:04:15;9.55;;;4.47;;
64653;SDS011;51065;48.884;12.598;2024-02-15T08:06:40;9.63;;;4.32;;
64653;SDS011;51065;48.884;12.598;2024-02-15T08:09:07;9.10;;;4.25;;
64653;SDS011;51065;48.884;12.598;2024-02-15T08:11:38;9.27;;;4.38;;
64653;SDS011;51065;48.884;12.598;2024-02-15T08:14:07;9.98;;;4.22;;
64653;SDS011;51065;48.884;12.598;2024-02-15T08:16:35;10.30;;;4.82;;
64653;SDS011;51065;48.884;12.598;2024-02-15T08:19:02;10.27;;;4.72;;
64653;SDS011;51065;48.884;12.598;2024-02-15T08:21:30;9.05;;;4.03;;
64653;SDS011;51065;48.884;12.598;2024-02-15T08:24:04;8.85;;;4.55;;
64653;SDS011;51065;48.884;12.598;2024-02-15T08:26:37;9.05;;;4.82;;
64653;SDS011;51065;48.884;12.598;2024-02-15T08:29:04;8.93;;;4.05;;
64653;SDS011;51065;48.884;12.598;2024-02-15T08:31:34;13.85;;;5.95;;
64653;SDS011;51065;48.884;12.598;2024-02-15T08:34:03;9.70;;;4.13;;
64653;SDS011;51065;48.884;12.598;2024-02-15T08:36:35;9.50;;;4.03;;
64653;SDS011;51065;48.884;12.598;2024-02-15T08:39:04;8.60;;;4.63;;
64653;SDS011;51065;48.884;12.598;2024-02-15T08:41:30;8.18;;;4.47;;
64653;SDS011;51065;48.884;12.598;2024-02-15T08:43:56;12.82;;;5.78;;
64653;SDS011;51065;48.884;12.598;2024-02-15T08:46:23;16.48;;;8.93;;
64653;SDS011;51065;48.884;12.598;2024-02-15T08:48:50;12.10;;;5.10;;
64653;SDS011;51065;48.884;12.598;2024-02-15T08:51:16;8.55;;;4.28;;
64653;SDS011;51065;48.884;12.598;2024-02-15T08:53:43;9.95;;;4.45;;
64653;SDS011;51065;48.884;12.598;2024-02-15T08:56:08;8.70;;;4.60;;
64653;SDS011;51065;48.884;12.598;2024-02-15T08:58:35;10.40;;;4.80;;
64653;SDS011;51065;48.884;12.598;2024-02-15T09:01:01;9.45;;;4.70;;
64653;SDS011;51065;48.884;12.598;2024-02-15T09:03:28;6.97;;;4.10;;
64653;SDS011;51065;48.884;12.598;2024-02-15T09:05:53;9.40;;;4.15;;
64653;SDS011;51065;48.884;12.598;2024-02-15T09:08:19;10.43;;;4.78;;
64653;SDS011;51065;48.884;12.598;2024-02-15T09:10:46;10.27;;;4.32;;
64653;SDS011;51065;48.884;12.598;2024-02-15T09:13:14;10.98;;;4.38;;
64653;SDS011;51065;48.884;12.598;2024-02-15T09:15:40;9.40;;;4.10;;
64653;SDS011;51065;48.884;12.598;2024-02-15T09:18:06;10.20;;;4.55;;
64653;SDS011;51065;48.884;12.598;2024-02-15T09:20:35;9.85;;;4.55;;
64653;SDS011;51065;48.884;12.598;2024-02-15T09:23:02;8.13;;;3.63;;
64653;SDS011;51065;48.884;12.598;2024-02-15T09:25:34;8.50;;;4.10;;
64653;SDS011;51065;48.884;12.598;2024-02-15T09:28:00;9.25;;;4.22;;
64653;SDS011;51065;48.884;12.598;2024-02-15T09:30:25;8.00;;;4.70;;
64653;SDS011;51065;48.884;12.598;2024-02-15T09:32:53;8.85;;;4.20;;
64653;SDS011;51065;48.884;12.598;2024-02-15T09:35:18;7.35;;;3.42;;
64653;SDS011;51065;48.884;12.598;2024-02-15T09:37:45;7.30;;;3.30;;
64653;SDS011;51065;48.884;12.598;2024-02-15T09:40:13;9.60;;;4.05;;
64653;SDS011;51065;48.884;12.598;2024-02-15T09:42:41;8.20;;;3.35;;
64653;SDS011;51065;48.884;12.598;2024-02-15T09:45:07;6.85;;;3.75;;
64653;SDS011;51065;48.884;12.598;2024-02-15T09:47:38;7.72;;;3.83;;
64653;SDS011;51065;48.884;12.598;2024-02-15T09:50:07;6.40;;;3.78;;
64653;SDS011;51065;48.884;12.598;2024-02-15T09:52:49;7.65;;;3.53;;
64653;SDS011;51065;48.884;12.598;2024-02-15T09:55:16;8.65;;;4.00;;
64653;SDS011;51065;48.884;12.598;2024-02-15T09:57:46;7.97;;;4.00;;
64653;SDS011;51065;48.884;12.598;2024-02-15T10:00:15;8.00;;;3.55;;
64653;SDS011;51065;48.884;12.598;2024-02-15T10:02:42;6.93;;;3.70;;
64653;SDS011;51065;48.884;12.598;2024-02-15T10:05:12;7.22;;;3.95;;
64653;SDS011;51065;48.884;12.598;2024-02-15T10:07:41;7.97;;;4.05;;
64653;SDS011;51065;48.884;12.598;2024-02-15T10:10:16;9.27;;;3.67;;
64653;SDS011;51065;48.884;12.598;2024-02-15T10:12:50;6.85;;;3.70;;
64653;SDS011;51065;48.884;12.598;2024-02-15T10:18:03;8.30;;;3.95;;
64653;SDS011;51065;48.884;12.598;2024-02-15T10:20:28;9.07;;;3.88;;
64653;SDS011;51065;48.884;12.598;2024-02-15T10:25:23;6.50;;;3.30;;
64653;SDS011;51065;48.884;12.598;2024-02-15T10:27:52;5.88;;;3.28;;
64653;SDS011;51065;48.884;12.598;2024-02-15T10:30:33;6.72;;;2.97;;
64653;SDS011;51065;48.884;12.598;2024-02-15T10:33:00;6.63;;;3.08;;
64653;SDS011;51065;48.884;12.598;2024-02-15T10:35:26;7.80;;;3.70;;
64653;SDS011;51065;48.884;12.598;2024-02-15T10:37:51;8.43;;;3.30;;
64653;SDS011;51065;48.884;12.598;2024-02-15T10:40:27;6.22;;;2.90;;
64653;SDS011;51065;48.884;12.598;2024-02-15T10:42:55;7.63;;;3.42;;
64653;SDS011;51065;48.884;12.598;2024-02-15T10:45:24;12.90;;;4.65;;
64653;SDS011;51065;48.884;12.598;2024-02-15T10:47:55;6.75;;;2.88;;
64653;SDS011;51065;48.884;12.598;2024-02-15T10:50:22;4.15;;;2.50;;
64653;SDS011;51065;48.884;12.598;2024-02-15T10:52:54;6.78;;;3.30;;
64653;SDS011;51065;48.884;12.598;2024-02-15T10:58:19;6.15;;;3.10;;
64653;SDS011;51065;48.884;12.598;2024-02-15T11:00:49;6.80;;;3.10;;
64653;SDS011;51065;48.884;12.598;2024-02-15T11:03:19;7.15;;;3.10;;
64653;SDS011;51065;48.884;12.598;2024-02-15T11:05:54;7.45;;;3.53;;
64653;SDS011;51065;48.884;12.598;2024-02-15T11:08:25;7.10;;;3.30;;
64653;SDS011;51065;48.884;12.598;2024-02-15T11:10:53;6.47;;;3.40;;
64653;SDS011;51065;48.884;12.598;2024-02-15T11:13:23;7.65;;;3.05;;
64653;SDS011;51065;48.884;12.598;2024-02-15T11:15:49;5.88;;;2.97;;
64653;SDS011;51065;48.884;12.598;2024-02-15T11:21:11;13.57;;;4.93;;
64653;SDS011;51065;48.884;12.598;2024-02-15T11:23:37;9.75;;;4.25;;
64653;SDS011;51065;48.884;12.598;2024-02-15T11:26:03;5.25;;;3.00;;
64653;SDS011;51065;48.884;12.598;2024-02-15T11:28:36;5.45;;;2.97;;
64653;SDS011;51065;48.884;12.598;2024-02-15T11:31:03;5.93;;;3.42;;
64653;SDS011;51065;48.884;12.598;2024-02-15T11:33:33;7.38;;;3.60;;
64653;SDS011;51065;48.884;12.598;2024-02-15T11:36:10;7.25;;;3.50;;
64653;SDS011;51065;48.884;12.598;2024-02-15T11:38:37;6.40;;;3.38;;
64653;SDS011;51065;48.884;12.598;2024-02-15T11:41:09;6.50;;;3.35;;
64653;SDS011;51065;48.884;12.598;2024-02-15T11:48:43;8.15;;;3.90;;
64653;SDS011;51065;48.884;12.598;2024-02-15T11:51:09;6.63;;;3.42;;
64653;SDS011;51065;48.884;12.598;2024-02-15T11:53:39;6.95;;;3.55;;
64653;SDS011;51065;48.884;12.598;2024-02-15T11:56:05;9.07;;;3.03;;
64653;SDS011;51065;48.884;12.598;2024-02-15T11:58:34;5.50;;;3.22;;
64653;SDS011;51065;48.884;12.598;2024-02-15T12:01:17;7.28;;;3.10;;
64653;SDS011;51065;48.884;12.598;2024-02-15T12:04:01;5.40;;;2.70;;
64653;SDS011;51065;48.884;12.598;2024-02-15T12:06:46;5.47;;;2.60;;
64653;SDS011;51065;48.884;12.598;2024-02-15T12:09:34;8.45;;;3.40;;
64653;SDS011;51065;48.884;12.598;2024-02-15T12:12:19;4.50;;;2.70;;
64653;SDS011;51065;48.884;12.598;2024-02-15T12:15:03;5.93;;;2.95;;
64653;SDS011;51065;48.884;12.598;2024-02-15T12:17:48;6.68;;;2.67;;
64653;SDS011;51065;48.884;12.598;2024-02-15T12:20:32;7.45;;;3.38;;
64653;SDS011;51065;48.884;12.598;2024-02-15T12:22:59;7.47;;;3.17;;
64653;SDS011;51065;48.884;12.598;2024-02-15T12:25:27;7.15;;;3.20;;
64653;SDS011;51065;48.884;12.598;2024-02-15T12:28:01;7.35;;;3.45;;
64653;SDS011;51065;48.884;12.598;2024-02-15T12:30:33;7.38;;;2.90;;
64653;SDS011;51065;48.884;12.598;2024-02-15T12:33:08;5.75;;;3.08;;
64653;SDS011;51065;48.884;12.598;2024-02-15T12:35:44;3.85;;;2.40;;
64653;SDS011;51065;48.884;12.598;2024-02-15T12:38:09;17.30;;;6.55;;
64653;SDS011;51065;48.884;12.598;2024-02-15T12:40:40;8.40;;;3.25;;
64653;SDS011;51065;48.884;12.598;2024-02-15T12:43:06;6.05;;;2.78;;
64653;SDS011;51065;48.884;12.598;2024-02-15T12:45:37;6.55;;;2.60;;
64653;SDS011;51065;48.884;12.598;2024-02-15T12:48:04;5.03;;;2.53;;
64653;SDS011;51065;48.884;12.598;2024-02-15T12:50:31;5.43;;;2.38;;
64653;SDS011;51065;48.884;12.598;2024-02-15T12:53:00;4.93;;;2.55;;
64653;SDS011;51065;48.884;12.598;2024-02-15T12:55:29;5.65;;;2.60;;
64653;SDS011;51065;48.884;12.598;2024-02-15T12:57:59;6.18;;;2.70;;
64653;SDS011;51065;48.884;12.598;2024-02-15T13:00:29;4.35;;;2.65;;
64653;SDS011;51065;48.884;12.598;2024-02-15T13:03:04;3.35;;;2.13;;
64653;SDS011;51065;48.884;12.598;2024-02-15T13:08:01;4.32;;;2.05;;
64653;SDS011;51065;48.884;12.598;2024-02-15T13:10:34;4.38;;;2.17;;
64653;SDS011;51065;48.884;12.598;2024-02-15T13:13:00;3.10;;;2.03;;
64653;SDS011;51065;48.884;12.598;2024-02-15T13:15:29;4.38;;;2.33;;
64653;SDS011;51065;48.884;12.598;2024-02-15T13:17:58;4.80;;;2.40;;
64653;SDS011;51065;48.884;12.598;2024-02-15T13:20:24;10.90;;;4.90;;
64653;SDS011;51065;48.884;12.598;2024-02-15T13:23:07;11.75;;;4.97;;
64653;SDS011;51065;48.884;12.598;2024-02-15T13:25:34;7.53;;;3.40;;
64653;SDS011;51065;48.884;12.598;2024-02-15T13:28:01;5.32;;;3.13;;
64653;SDS011;51065;48.884;12.598;2024-02-15T13:30:27;9.80;;;4.93;;
64653;SDS011;51065;48.884;12.598;2024-02-15T13:32:53;8.38;;;3.10;;
64653;SDS011;51065;48.884;12.598;2024-02-15T13:35:19;6.63;;;2.63;;
64653;SDS011;51065;48.884;12.598;2024-02-15T13:37:49;8.05;;;2.80;;
64653;SDS011;51065;48.884;12.598;2024-02-15T13:40:17;8.13;;;3.20;;
64653;SDS011;51065;48.884;12.598;2024-02-15T13:42:45;5.60;;;3.10;;
64653;SDS011;51065;48.884;12.598;2024-02-15T13:45:17;7.00;;;2.88;;
64653;SDS011;51065;48.884;12.598;2024-02-15T13:47:52;6.32;;;2.67;;
64653;SDS011;51065;48.884;12.598;2024-02-15T13:50:19;5.85;;;2.30;;
64653;SDS011;51065;48.884;12.598;2024-02-15T13:52:45;5.38;;;2.60;;
64653;SDS011;51065;48.884;12.598;2024-02-15T13:55:11;4.97;;;2.42;;
64653;SDS011;51065;48.884;12.598;2024-02-15T13:57:41;5.50;;;2.45;;
64653;SDS011;51065;48.884;12.598;2024-02-15T14:00:10;4.03;;;2.22;;
64653;SDS011;51065;48.884;12.598;2024-02-15T14:02:50;6.80;;;2.28;;
64653;SDS011;51065;48.884;12.598;2024-02-15T14:05:20;3.72;;;2.05;;
64653;SDS011;51065;48.884;12.598;2024-02-15T14:07:49;4.40;;;2.53;;
64653;SDS011;51065;48.884;12.598;2024-02-15T14:10:18;5.00;;;2.10;;
64653;SDS011;51065;48.884;12.598;2024-02-15T14:12:46;6.13;;;2.60;;
64653;SDS011;51065;48.884;12.598;2024-02-15T14:15:12;6.60;;;3.03;;
64653;SDS011;51065;48.884;12.598;2024-02-15T14:17:38;5.22;;;2.30;;
64653;SDS011;51065;48.884;12.598;2024-02-15T14:20:04;6.93;;;2.20;;
64653;SDS011;51065;48.884;12.598;2024-02-15T14:22:35;4.68;;;2.30;;
64653;SDS011;51065;48.884;12.598;2024-02-15T14:25:00;4.35;;;2.03;;
64653;SDS011;51065;48.884;12.598;2024-02-15T14:27:27;4.05;;;2.53;;
64653;SDS011;51065;48.884;12.598;2024-02-15T14:29:53;6.07;;;2.60;;
64653;SDS011;51065;48.884;12.598;2024-02-15T14:32:37;4.35;;;2.25;;
64653;SDS011;51065;48.884;12.598;2024-02-15T14:35:22;4.72;;;2.13;;
64653;SDS011;51065;48.884;12.598;2024-02-15T14:37:48;5.53;;;2.90;;
64653;SDS011;51065;48.884;12.598;2024-02-15T14:40:14;7.07;;;2.70;;
64653;SDS011;51065;48.884;12.598;2024-02-15T14:42:40;5.68;;;2.40;;
64653;SDS011;51065;48.884;12.598;2024-02-15T14:45:07;4.22;;;2.42;;
64653;SDS011;51065;48.884;12.598;2024-02-15T14:47:34;6.35;;;3.40;;
64653;SDS011;51065;48.884;12.598;2024-02-15T14:49:59;4.20;;;2.22;;
64653;SDS011;51065;48.884;12.598;2024-02-15T14:52:25;4.95;;;1.98;;
64653;SDS011;51065;48.884;12.598;2024-02-15T14:54:51;4.95;;;2.33;;
64653;SDS011;51065;48.884;12.598;2024-02-15T14:57:17;7.18;;;2.30;;